sensor_id;sensor_type;location;lat;lon;timestamp;pressure;altitude;pressure_sealevel;temperature;humidity
56719;BME280;42597;40.636;0.278;2023-05-22T00:00:34;96931.25;;;20.97;53.41
56719;BME280;42597;40.636;0.278;2023-05-22T00:03:00;96935.19;;;20.96;53.64
56719;BME280;42597;40.636;0.278;2023-05-22T00:05:28;96932.06;;;20.94;53.54
56719;BME280;42597;40.636;0.278;2023-05-22T00:07:54;96928.16;;;20.95;53.57
56719;BME280;42597;40.636;0.278;2023-05-22T00:10:20;96929.31;;;20.94;53.49
56719;BME280;42597;40.636;0.278;2023-05-22T00:12:46;96919.53;;;20.93;53.39
56719;BME280;42597;40.636;0.278;2023-05-22T00:15:11;96927.78;;;20.93;53.38
56719;BME280;42597;40.636;0.278;2023-05-22T00:17:37;96937.56;;;20.94;53.29
56719;BME280;42597;40.636;0.278;2023-05-22T00:20:03;96929.41;;;20.90;53.46
56719;BME280;42597;40.636;0.278;2023-05-22T00:22:31;96934.47;;;20.92;53.37
56719;BME280;42597;40.636;0.278;2023-05-22T00:25:01;96931.34;;;20.90;53.38
56719;BME280;42597;40.636;0.278;2023-05-22T00:27:26;96927.06;;;20.89;53.32
56719;BME280;42597;40.636;0.278;2023-05-22T00:29:52;96925.09;;;20.89;53.45
56719;BME280;42597;40.636;0.278;2023-05-22T00:32:18;96929.03;;;20.88;53.20
56719;BME280;42597;40.636;0.278;2023-05-22T00:34:43;96925.16;;;20.86;53.28
56719;BME280;42597;40.636;0.278;2023-05-22T00:37:09;96923.97;;;20.87;53.69
56719;BME280;42597;40.636;0.278;2023-05-22T00:39:35;96926.72;;;20.87;53.34
56719;BME280;42597;40.636;0.278;2023-05-22T00:42:00;96919.66;;;20.86;53.29
56719;BME280;42597;40.636;0.278;2023-05-22T00:44:26;96930.63;;;20.86;53.14
56719;BME280;42597;40.636;0.278;2023-05-22T00:46:52;96932.22;;;20.87;53.17
56719;BME280;42597;40.636;0.278;2023-05-22T00:49:17;96934.16;;;20.86;53.21
56719;BME280;42597;40.636;0.278;2023-05-22T00:51:43;96944.38;;;20.86;53.20
56719;BME280;42597;40.636;0.278;2023-05-22T00:54:09;96945.56;;;20.85;52.98
56719;BME280;42597;40.636;0.278;2023-05-22T00:56:35;96938.53;;;20.84;53.01
56719;BME280;42597;40.636;0.278;2023-05-22T00:59:00;96949.53;;;20.84;53.03
56719;BME280;42597;40.636;0.278;2023-05-22T01:01:26;96942.47;;;20.83;53.20
56719;BME280;42597;40.636;0.278;2023-05-22T01:03:58;96947.97;;;20.83;52.93
56719;BME280;42597;40.636;0.278;2023-05-22T01:06:26;96944.84;;;20.81;53.14
56719;BME280;42597;40.636;0.278;2023-05-22T01:08:52;96947.59;;;20.81;52.99
56719;BME280;42597;40.636;0.278;2023-05-22T01:11:41;96938.59;;;20.80;53.21
56719;BME280;42597;40.636;0.278;2023-05-22T01:32:46;96934.84;;;20.70;52.97
56719;BME280;42597;40.636;0.278;2023-05-22T01:35:15;96937.59;;;20.70;53.18
56719;BME280;42597;40.636;0.278;2023-05-22T01:37:43;96941.88;;;20.72;52.85
56719;BME280;42597;40.636;0.278;2023-05-22T01:40:10;96937.59;;;20.70;53.31
56719;BME280;42597;40.636;0.278;2023-05-22T01:42:37;96929.75;;;20.69;53.08
56719;BME280;42597;40.636;0.278;2023-05-22T01:45:06;96926.94;;;20.73;52.98
56719;BME280;42597;40.636;0.278;2023-05-22T01:47:33;96924.25;;;20.69;52.94
56719;BME280;42597;40.636;0.278;2023-05-22T01:49:59;96920.75;;;20.68;52.88
56719;BME280;42597;40.636;0.278;2023-05-22T01:55:30;96919.53;;;20.69;52.84
56719;BME280;42597;40.636;0.278;2023-05-22T02:00:41;96920.41;;;20.66;52.89
56719;BME280;42597;40.636;0.278;2023-05-22T02:03:19;96915.69;;;20.67;52.80
56719;BME280;42597;40.636;0.278;2023-05-22T02:05:50;96920.41;;;20.66;52.87
56719;BME280;42597;40.636;0.278;2023-05-22T02:08:19;96912.16;;;20.66;52.68
56719;BME280;42597;40.636;0.278;2023-05-22T02:10:45;96913.34;;;20.65;52.58
56719;BME280;42597;40.636;0.278;2023-05-22T02:13:13;96916.09;;;20.65;52.72
56719;BME280;42597;40.636;0.278;2023-05-22T02:15:39;96909.03;;;20.64;52.64
56719;BME280;42597;40.636;0.278;2023-05-22T02:18:11;96924.75;;;20.64;52.70
56719;BME280;42597;40.636;0.278;2023-05-22T02:20:42;96923.97;;;20.63;52.61
56719;BME280;42597;40.636;0.278;2023-05-22T02:23:10;96911.44;;;20.62;52.62
56719;BME280;42597;40.636;0.278;2023-05-22T02:25:35;96916.13;;;20.62;52.64
56719;BME280;42597;40.636;0.278;2023-05-22T02:28:01;96911.44;;;20.62;52.68
56719;BME280;42597;40.636;0.278;2023-05-22T02:30:27;96917.00;;;20.59;52.63
56719;BME280;42597;40.636;0.278;2023-05-22T02:32:53;96913.81;;;20.60;52.32
56719;BME280;42597;40.636;0.278;2023-05-22T02:35:18;96906.78;;;20.59;52.42
56719;BME280;42597;40.636;0.278;2023-05-22T02:37:44;96903.66;;;20.57;52.47
56719;BME280;42597;40.636;0.278;2023-05-22T02:40:10;96906.78;;;20.59;52.38
56719;BME280;42597;40.636;0.278;2023-05-22T02:42:36;96903.66;;;20.57;52.69
56719;BME280;42597;40.636;0.278;2023-05-22T02:45:02;96902.13;;;20.56;52.52
56719;BME280;42597;40.636;0.278;2023-05-22T02:47:28;96901.75;;;20.54;52.51
56719;BME280;42597;40.636;0.278;2023-05-22T02:49:54;96901.41;;;20.52;52.62
56719;BME280;42597;40.636;0.278;2023-05-22T02:52:22;96906.19;;;20.44;52.83
56719;BME280;42597;40.636;0.278;2023-05-22T02:54:49;96899.88;;;20.48;52.61
56719;BME280;42597;40.636;0.278;2023-05-22T02:57:14;96902.31;;;20.42;52.84
56719;BME280;42597;40.636;0.278;2023-05-22T02:59:40;96900.63;;;20.52;52.47
56719;BME280;42597;40.636;0.278;2023-05-22T03:02:06;96901.84;;;20.47;52.57
56719;BME280;42597;40.636;0.278;2023-05-22T03:04:32;96905.44;;;20.44;52.69
56719;BME280;42597;40.636;0.278;2023-05-22T03:06:58;96891.81;;;20.37;52.72
56719;BME280;42597;40.636;0.278;2023-05-22T03:09:24;96901.97;;;20.40;52.89
56719;BME280;42597;40.636;0.278;2023-05-22T03:11:49;96902.31;;;20.42;52.72
56719;BME280;42597;40.636;0.278;2023-05-22T03:14:15;96894.06;;;20.42;52.79
56719;BME280;42597;40.636;0.278;2023-05-22T03:16:40;96893.00;;;20.36;52.55
56719;BME280;42597;40.636;0.278;2023-05-22T03:19:10;96890.50;;;20.45;52.53
56719;BME280;42597;40.636;0.278;2023-05-22T03:21:36;96901.47;;;20.45;52.63
56719;BME280;42597;40.636;0.278;2023-05-22T03:24:02;96894.03;;;20.45;52.47
56719;BME280;42597;40.636;0.278;2023-05-22T03:26:28;96892.91;;;20.43;52.45
56719;BME280;42597;40.636;0.278;2023-05-22T03:28:54;96893.69;;;20.43;52.58
56719;BME280;42597;40.636;0.278;2023-05-22T03:31:20;96893.72;;;20.40;52.49
56719;BME280;42597;40.636;0.278;2023-05-22T03:33:45;96900.75;;;20.41;52.57
56719;BME280;42597;40.636;0.278;2023-05-22T03:36:11;96887.41;;;20.43;52.46
56719;BME280;42597;40.636;0.278;2023-05-22T03:38:36;96885.84;;;20.42;52.56
56719;BME280;42597;40.636;0.278;2023-05-22T03:41:02;96889.78;;;20.41;52.58
56719;BME280;42597;40.636;0.278;2023-05-22T03:43:27;96880.34;;;20.42;52.49
56719;BME280;42597;40.636;0.278;2023-05-22T03:45:53;96885.84;;;20.42;52.26
56719;BME280;42597;40.636;0.278;2023-05-22T03:48:19;96879.63;;;20.38;52.22
56719;BME280;42597;40.636;0.278;2023-05-22T03:50:45;96885.84;;;20.42;52.29
56719;BME280;42597;40.636;0.278;2023-05-22T03:53:10;96887.41;;;20.43;52.39
56719;BME280;42597;40.636;0.278;2023-05-22T03:55:36;96880.34;;;20.42;52.43
56719;BME280;42597;40.636;0.278;2023-05-22T03:58:01;96881.94;;;20.43;52.22
56719;BME280;42597;40.636;0.278;2023-05-22T04:00:27;96885.84;;;20.42;52.26
56719;BME280;42597;40.636;0.278;2023-05-22T04:02:52;96884.31;;;20.41;52.33
56719;BME280;42597;40.636;0.278;2023-05-22T04:05:18;96881.16;;;20.42;52.37
56719;BME280;42597;40.636;0.278;2023-05-22T04:07:44;96877.28;;;20.40;52.40
56719;BME280;42597;40.636;0.278;2023-05-22T04:10:10;96876.91;;;20.38;52.16
56719;BME280;42597;40.636;0.278;2023-05-22T04:12:36;96883.59;;;20.37;52.24
56719;BME280;42597;40.636;0.278;2023-05-22T04:15:01;96882.38;;;20.38;52.27
56719;BME280;42597;40.636;0.278;2023-05-22T04:17:30;96880.84;;;20.37;52.17
56719;BME280;42597;40.636;0.278;2023-05-22T04:19:59;96884.78;;;20.36;52.46
56719;BME280;42597;40.636;0.278;2023-05-22T04:22:27;96886.31;;;20.37;52.21
56719;BME280;42597;40.636;0.278;2023-05-22T04:24:55;96888.72;;;20.35;52.07
56719;BME280;42597;40.636;0.278;2023-05-22T04:27:21;96892.63;;;20.34;52.15
56719;BME280;42597;40.636;0.278;2023-05-22T04:29:47;96894.16;;;20.11;53.17
56719;BME280;42597;40.636;0.278;2023-05-22T04:32:15;96890.03;;;20.27;52.75
56719;BME280;42597;40.636;0.278;2023-05-22T04:34:45;96892.28;;;20.32;52.39
56719;BME280;42597;40.636;0.278;2023-05-22T04:37:11;96893.06;;;20.32;52.37
56719;BME280;42597;40.636;0.278;2023-05-22T04:39:39;96882.88;;;20.33;52.48
56719;BME280;42597;40.636;0.278;2023-05-22T04:42:05;96886.81;;;20.32;52.42
56719;BME280;42597;40.636;0.278;2023-05-22T04:44:33;96898.94;;;20.34;52.25
56719;BME280;42597;40.636;0.278;2023-05-22T04:47:03;96889.13;;;20.33;52.23
56719;BME280;42597;40.636;0.278;2023-05-22T04:49:29;96886.81;;;20.32;52.21
56719;BME280;42597;40.636;0.278;2023-05-22T04:51:54;96882.88;;;20.33;52.25
56719;BME280;42597;40.636;0.278;2023-05-22T04:54:22;96874.28;;;20.31;52.37
56719;BME280;42597;40.636;0.278;2023-05-22T04:56:48;96883.69;;;20.30;52.55
56719;BME280;42597;40.636;0.278;2023-05-22T04:59:14;96877.81;;;20.31;52.34
56719;BME280;42597;40.636;0.278;2023-05-22T05:01:40;96882.88;;;20.33;52.32
56719;BME280;42597;40.636;0.278;2023-05-22T05:04:09;96878.19;;;20.30;52.48
56719;BME280;42597;40.636;0.278;2023-05-22T05:06:35;96889.97;;;20.30;52.48
56719;BME280;42597;40.636;0.278;2023-05-22T05:09:04;96885.59;;;20.33;52.20
56719;BME280;42597;40.636;0.278;2023-05-22T05:11:30;96886.03;;;20.31;52.05
56719;BME280;42597;40.636;0.278;2023-05-22T05:13:56;96892.28;;;20.32;52.26
56719;BME280;42597;40.636;0.278;2023-05-22T05:16:22;96888.78;;;20.31;52.55
56719;BME280;42597;40.636;0.278;2023-05-22T05:18:49;96886.03;;;20.31;52.63
56719;BME280;42597;40.636;0.278;2023-05-22T05:21:16;96896.25;;;20.31;52.45
56719;BME280;42597;40.636;0.278;2023-05-22T05:23:42;96893.88;;;20.29;52.64
56719;BME280;42597;40.636;0.278;2023-05-22T05:26:08;96895.47;;;20.30;52.26
56719;BME280;42597;40.636;0.278;2023-05-22T05:28:34;96903.75;;;20.27;52.88
56719;BME280;42597;40.636;0.278;2023-05-22T05:30:59;96909.59;;;20.29;52.71
56719;BME280;42597;40.636;0.278;2023-05-22T05:33:25;96908.03;;;20.28;52.66
56719;BME280;42597;40.636;0.278;2023-05-22T05:35:51;96909.22;;;20.27;52.68
56719;BME280;42597;40.636;0.278;2023-05-22T05:38:18;96913.53;;;20.28;52.54
56719;BME280;42597;40.636;0.278;2023-05-22T05:40:43;96915.88;;;20.26;52.74
56719;BME280;42597;40.636;0.278;2023-05-22T05:43:09;96919.06;;;20.24;53.02
56719;BME280;42597;40.636;0.278;2023-05-22T05:45:35;96923.34;;;20.25;52.71
56719;BME280;42597;40.636;0.278;2023-05-22T05:48:01;96918.63;;;20.26;52.93
56719;BME280;42597;40.636;0.278;2023-05-22T05:50:26;96917.50;;;20.23;52.70
56719;BME280;42597;40.636;0.278;2023-05-22T05:52:52;96919.84;;;20.25;53.08
56719;BME280;42597;40.636;0.278;2023-05-22T05:55:17;96924.59;;;20.20;52.95
56719;BME280;42597;40.636;0.278;2023-05-22T05:57:43;96918.28;;;20.24;52.85
56719;BME280;42597;40.636;0.278;2023-05-22T06:00:09;96928.06;;;20.25;52.72
56719;BME280;42597;40.636;0.278;2023-05-22T06:02:37;96918.28;;;20.24;53.06
56719;BME280;42597;40.636;0.278;2023-05-22T06:05:03;96925.75;;;20.23;52.80
56719;BME280;42597;40.636;0.278;2023-05-22T06:07:30;96924.59;;;20.20;53.17
56719;BME280;42597;40.636;0.278;2023-05-22T06:09:57;96930.47;;;20.23;52.83
56719;BME280;42597;40.636;0.278;2023-05-22T06:12:23;96929.25;;;20.24;52.95
56719;BME280;42597;40.636;0.278;2023-05-22T06:14:48;96929.31;;;20.20;52.82
56719;BME280;42597;40.636;0.278;2023-05-22T06:17:14;96932.47;;;20.18;53.34
56719;BME280;42597;40.636;0.278;2023-05-22T06:19:40;96930.50;;;20.19;53.09
56719;BME280;42597;40.636;0.278;2023-05-22T06:22:06;96928.53;;;20.19;53.24
56719;BME280;42597;40.636;0.278;2023-05-22T06:24:32;96937.97;;;20.18;53.44
56719;BME280;42597;40.636;0.278;2023-05-22T06:26:58;96937.13;;;20.21;53.09
56719;BME280;42597;40.636;0.278;2023-05-22T06:29:24;96930.84;;;20.21;53.07
56719;BME280;42597;40.636;0.278;2023-05-22T06:31:49;96927.34;;;20.20;53.21
56719;BME280;42597;40.636;0.278;2023-05-22T06:34:15;96941.06;;;20.20;53.03
56719;BME280;42597;40.636;0.278;2023-05-22T06:36:41;96924.59;;;20.20;53.73
56719;BME280;42597;40.636;0.278;2023-05-22T06:39:06;96938.31;;;20.20;53.16
56719;BME280;42597;40.636;0.278;2023-05-22T06:41:33;96932.41;;;20.22;53.18
56719;BME280;42597;40.636;0.278;2023-05-22T06:44:00;96926.91;;;20.22;53.16
56719;BME280;42597;40.636;0.278;2023-05-22T06:46:26;96927.72;;;20.23;53.10
56719;BME280;42597;40.636;0.278;2023-05-22T06:48:52;96926.13;;;20.21;53.30
56719;BME280;42597;40.636;0.278;2023-05-22T06:51:19;96924.59;;;20.20;53.45
56719;BME280;42597;40.636;0.278;2023-05-22T06:53:45;96928.50;;;20.23;53.39
56719;BME280;42597;40.636;0.278;2023-05-22T06:56:10;96926.53;;;20.24;53.32
56719;BME280;42597;40.636;0.278;2023-05-22T06:58:37;96937.50;;;20.24;53.51
56719;BME280;42597;40.636;0.278;2023-05-22T07:01:03;96934.75;;;20.24;53.25
56719;BME280;42597;40.636;0.278;2023-05-22T07:03:28;96942.56;;;20.25;53.19
56719;BME280;42597;40.636;0.278;2023-05-22T07:05:54;96945.72;;;20.24;53.42
56719;BME280;42597;40.636;0.278;2023-05-22T07:08:22;96951.22;;;20.24;53.46
56719;BME280;42597;40.636;0.278;2023-05-22T07:10:47;96945.72;;;20.24;53.50
56719;BME280;42597;40.636;0.278;2023-05-22T07:13:13;96951.97;;;20.24;53.77
56719;BME280;42597;40.636;0.278;2023-05-22T07:15:39;96947.69;;;20.23;53.29
56719;BME280;42597;40.636;0.278;2023-05-22T07:18:04;96946.91;;;20.23;53.33
56719;BME280;42597;40.636;0.278;2023-05-22T07:20:30;96951.22;;;20.24;53.24
56719;BME280;42597;40.636;0.278;2023-05-22T07:22:56;96950.44;;;20.23;53.00
56719;BME280;42597;40.636;0.278;2023-05-22T07:25:22;96956.69;;;20.24;53.06
56719;BME280;42597;40.636;0.278;2023-05-22T07:27:48;96955.16;;;20.23;53.17
56719;BME280;42597;40.636;0.278;2023-05-22T07:30:13;96959.44;;;20.24;53.01
56719;BME280;42597;40.636;0.278;2023-05-22T07:32:39;96959.44;;;20.24;53.14
56719;BME280;42597;40.636;0.278;2023-05-22T07:35:05;96956.69;;;20.24;53.17
56719;BME280;42597;40.636;0.278;2023-05-22T07:37:31;96962.19;;;20.24;53.16
56719;BME280;42597;40.636;0.278;2023-05-22T07:39:57;96962.97;;;20.24;53.08
56719;BME280;42597;40.636;0.278;2023-05-22T07:42:23;96962.19;;;20.24;53.35
56719;BME280;42597;40.636;0.278;2023-05-22T07:44:50;96967.66;;;20.24;53.30
56719;BME280;42597;40.636;0.278;2023-05-22T07:47:16;96962.97;;;20.24;53.08
56719;BME280;42597;40.636;0.278;2023-05-22T07:49:42;96963.72;;;20.25;53.53
56719;BME280;42597;40.636;0.278;2023-05-22T07:52:07;96968.44;;;20.24;53.35
56719;BME280;42597;40.636;0.278;2023-05-22T07:54:33;96959.00;;;20.25;53.17
56719;BME280;42597;40.636;0.278;2023-05-22T07:56:58;96958.16;;;20.01;53.81
56719;BME280;42597;40.636;0.278;2023-05-22T07:59:27;96965.31;;;19.95;54.23
56719;BME280;42597;40.636;0.278;2023-05-22T08:01:53;96965.22;;;20.02;53.69
56719;BME280;42597;40.636;0.278;2023-05-22T08:04:19;96968.78;;;19.99;54.19
56719;BME280;42597;40.636;0.278;2023-05-22T08:06:44;96964.81;;;20.04;54.01
56719;BME280;42597;40.636;0.278;2023-05-22T08:09:10;96970.81;;;20.22;53.40
56719;BME280;42597;40.636;0.278;2023-05-22T08:11:36;96970.47;;;20.20;53.34
56719;BME280;42597;40.636;0.278;2023-05-22T08:14:04;96970.03;;;20.21;53.08
56719;BME280;42597;40.636;0.278;2023-05-22T08:16:30;96967.72;;;20.20;53.26
56719;BME280;42597;40.636;0.278;2023-05-22T08:18:56;96972.44;;;20.19;53.02
56719;BME280;42597;40.636;0.278;2023-05-22T08:21:22;96971.50;;;19.68;62.52
56719;BME280;42597;40.636;0.278;2023-05-22T08:23:47;96978.56;;;18.90;68.21
56719;BME280;42597;40.636;0.278;2023-05-22T08:26:13;96966.19;;;18.71;71.68
56719;BME280;42597;40.636;0.278;2023-05-22T08:28:39;96969.81;;;18.54;74.26
56719;BME280;42597;40.636;0.278;2023-05-22T08:31:12;96970.94;;;18.60;75.17
56719;BME280;42597;40.636;0.278;2023-05-22T08:33:38;96966.25;;;18.57;76.35
56719;BME280;42597;40.636;0.278;2023-05-22T08:36:04;96961.47;;;18.68;74.50
56719;BME280;42597;40.636;0.278;2023-05-22T08:38:30;96952.53;;;19.09;71.14
56719;BME280;42597;40.636;0.278;2023-05-22T08:40:56;96957.66;;;18.59;75.10
56719;BME280;42597;40.636;0.278;2023-05-22T08:43:22;96945.25;;;18.43;75.34
56719;BME280;42597;40.636;0.278;2023-05-22T08:45:58;96957.44;;;18.35;76.30
56719;BME280;42597;40.636;0.278;2023-05-22T08:48:28;96953.84;;;18.45;76.31
56719;BME280;42597;40.636;0.278;2023-05-22T08:50:57;96949.94;;;18.46;76.33
56719;BME280;42597;40.636;0.278;2023-05-22T08:53:23;96955.47;;;18.36;76.85
56719;BME280;42597;40.636;0.278;2023-05-22T08:55:54;96957.50;;;18.24;77.37
56719;BME280;42597;40.636;0.278;2023-05-22T08:58:21;96967.25;;;18.29;77.15
56719;BME280;42597;40.636;0.278;2023-05-22T09:00:47;96969.59;;;18.31;77.54
56719;BME280;42597;40.636;0.278;2023-05-22T09:03:13;96964.94;;;18.20;78.74
56719;BME280;42597;40.636;0.278;2023-05-22T09:05:40;96971.22;;;18.17;78.90
56719;BME280;42597;40.636;0.278;2023-05-22T09:08:06;96957.94;;;18.19;78.77
56719;BME280;42597;40.636;0.278;2023-05-22T09:10:35;96966.22;;;18.05;80.69
56719;BME280;42597;40.636;0.278;2023-05-22T09:13:07;96972.09;;;17.96;80.73
56719;BME280;42597;40.636;0.278;2023-05-22T09:15:34;96982.97;;;18.14;80.42
56719;BME280;42597;40.636;0.278;2023-05-22T09:18:02;96979.38;;;18.24;80.57
56719;BME280;42597;40.636;0.278;2023-05-22T09:20:28;96986.50;;;18.11;82.98
56719;BME280;42597;40.636;0.278;2023-05-22T09:22:53;96981.50;;;17.95;84.99
56719;BME280;42597;40.636;0.278;2023-05-22T09:25:20;96984.22;;;17.99;86.12
56719;BME280;42597;40.636;0.278;2023-05-22T09:27:48;96993.59;;;17.98;86.82
56719;BME280;42597;40.636;0.278;2023-05-22T09:30:17;96986.19;;;17.91;88.16
56719;BME280;42597;40.636;0.278;2023-05-22T09:32:44;96992.44;;;17.92;87.65
56719;BME280;42597;40.636;0.278;2023-05-22T09:35:11;96999.09;;;17.91;88.82
56719;BME280;42597;40.636;0.278;2023-05-22T09:37:37;96992.41;;;17.99;88.33
56719;BME280;42597;40.636;0.278;2023-05-22T09:40:10;96990.91;;;17.87;91.15
56719;BME280;42597;40.636;0.278;2023-05-22T09:42:36;96988.19;;;17.84;92.21
56719;BME280;42597;40.636;0.278;2023-05-22T09:45:03;96995.19;;;17.85;90.90
56719;BME280;42597;40.636;0.278;2023-05-22T09:47:29;96995.25;;;17.63;92.04
56719;BME280;42597;40.636;0.278;2023-05-22T09:49:56;96995.66;;;17.65;91.06
56719;BME280;42597;40.636;0.278;2023-05-22T09:52:23;96999.50;;;17.86;85.71
56719;BME280;42597;40.636;0.278;2023-05-22T09:54:54;96995.47;;;18.08;87.66
56719;BME280;42597;40.636;0.278;2023-05-22T09:57:24;96997.72;;;18.28;82.72
56719;BME280;42597;40.636;0.278;2023-05-22T09:59:52;96994.72;;;18.00;86.87
56719;BME280;42597;40.636;0.278;2023-05-22T10:02:21;96997.09;;;17.98;87.47
56719;BME280;42597;40.636;0.278;2023-05-22T10:04:48;97003.22;;;18.24;83.60
56719;BME280;42597;40.636;0.278;2023-05-22T10:07:36;96996.78;;;17.86;87.89
56719;BME280;42597;40.636;0.278;2023-05-22T10:10:07;97001.06;;;17.80;88.23
56719;BME280;42597;40.636;0.278;2023-05-22T10:12:39;96996.41;;;17.69;88.02
56719;BME280;42597;40.636;0.278;2023-05-22T10:15:06;97001.94;;;17.44;89.98
56719;BME280;42597;40.636;0.278;2023-05-22T10:17:34;96999.59;;;17.50;91.31
56719;BME280;42597;40.636;0.278;2023-05-22T10:20:00;97001.97;;;17.26;93.43
56719;BME280;42597;40.636;0.278;2023-05-22T10:22:29;97002.34;;;17.28;93.62
56719;BME280;42597;40.636;0.278;2023-05-22T10:24:57;97010.53;;;17.39;93.04
56719;BME280;42597;40.636;0.278;2023-05-22T10:27:23;97007.44;;;17.41;91.30
56719;BME280;42597;40.636;0.278;2023-05-22T10:29:53;96999.59;;;17.57;88.70
56719;BME280;42597;40.636;0.278;2023-05-22T10:35:42;96999.59;;;17.54;88.83
56719;BME280;42597;40.636;0.278;2023-05-22T10:40:57;96998.63;;;18.03;78.52
56719;BME280;42597;40.636;0.278;2023-05-22T10:43:23;96997.28;;;17.31;89.60
56719;BME280;42597;40.636;0.278;2023-05-22T10:45:48;96987.03;;;17.70;85.98
56719;BME280;42597;40.636;0.278;2023-05-22T10:48:14;96991.00;;;17.48;90.81
56719;BME280;42597;40.636;0.278;2023-05-22T10:50:49;96982.41;;;17.53;88.96
56719;BME280;42597;40.636;0.278;2023-05-22T10:53:24;96979.25;;;17.69;90.51
56719;BME280;42597;40.636;0.278;2023-05-22T10:55:54;96989.84;;;17.49;91.15
56719;BME280;42597;40.636;0.278;2023-05-22T10:58:30;96983.78;;;18.04;85.30
56719;BME280;42597;40.636;0.278;2023-05-22T11:03:58;96978.44;;;17.75;86.83
56719;BME280;42597;40.636;0.278;2023-05-22T11:08:56;96982.97;;;18.14;80.94
56719;BME280;42597;40.636;0.278;2023-05-22T11:11:25;96980.69;;;18.02;81.69
56719;BME280;42597;40.636;0.278;2023-05-22T11:13:52;96985.38;;;18.05;80.83
56719;BME280;42597;40.636;0.278;2023-05-22T11:16:18;96987.38;;;17.90;80.08
56719;BME280;42597;40.636;0.278;2023-05-22T11:18:44;96982.25;;;17.96;79.88
56719;BME280;42597;40.636;0.278;2023-05-22T11:21:10;96985.22;;;18.30;76.09
56719;BME280;42597;40.636;0.278;2023-05-22T11:23:38;96989.00;;;18.47;74.59
56719;BME280;42597;40.636;0.278;2023-05-22T11:26:30;96984.94;;;18.10;80.05
56719;BME280;42597;40.636;0.278;2023-05-22T11:28:57;96993.13;;;18.14;79.10
56719;BME280;42597;40.636;0.278;2023-05-22T11:31:24;96985.19;;;18.34;76.85
56719;BME280;42597;40.636;0.278;2023-05-22T11:33:52;96979.00;;;18.22;78.98
56719;BME280;42597;40.636;0.278;2023-05-22T11:36:18;96984.53;;;18.08;83.75
56719;BME280;42597;40.636;0.278;2023-05-22T11:38:43;96983.00;;;18.07;82.49
56719;BME280;42597;40.636;0.278;2023-05-22T11:41:09;96980.59;;;18.16;83.38
56719;BME280;42597;40.636;0.278;2023-05-22T11:43:41;96977.59;;;18.59;79.68
56719;BME280;42597;40.636;0.278;2023-05-22T11:46:09;96977.03;;;18.27;82.00
56719;BME280;42597;40.636;0.278;2023-05-22T11:48:39;96974.94;;;18.45;77.78
56719;BME280;42597;40.636;0.278;2023-05-22T11:51:05;96976.13;;;18.44;80.54
56719;BME280;42597;40.636;0.278;2023-05-22T11:53:31;96975.47;;;18.29;82.00
56719;BME280;42597;40.636;0.278;2023-05-22T11:56:04;96977.47;;;18.21;83.03
56719;BME280;42597;40.636;0.278;2023-05-22T11:58:31;96972.00;;;18.21;82.59
56719;BME280;42597;40.636;0.278;2023-05-22T12:01:01;96968.88;;;18.19;82.56
56719;BME280;42597;40.636;0.278;2023-05-22T12:03:27;96969.16;;;18.32;81.23
56719;BME280;42597;40.636;0.278;2023-05-22T12:05:54;96964.47;;;18.33;81.33
56719;BME280;42597;40.636;0.278;2023-05-22T12:08:21;96961.66;;;18.47;79.76
56719;BME280;42597;40.636;0.278;2023-05-22T12:10:48;96961.97;;;18.56;79.59
56719;BME280;42597;40.636;0.278;2023-05-22T12:13:14;96953.00;;;18.52;79.92
56719;BME280;42597;40.636;0.278;2023-05-22T12:15:39;96949.00;;;18.64;76.07
56719;BME280;42597;40.636;0.278;2023-05-22T12:18:08;96941.06;;;18.84;73.22
56719;BME280;42597;40.636;0.278;2023-05-22T12:20:34;96940.41;;;18.65;77.60
56719;BME280;42597;40.636;0.278;2023-05-22T12:22:59;96933.41;;;18.57;79.13
56719;BME280;42597;40.636;0.278;2023-05-22T12:25:32;96933.41;;;18.57;77.49
56719;BME280;42597;40.636;0.278;2023-05-22T12:28:00;96926.88;;;18.96;71.19
56719;BME280;42597;40.636;0.278;2023-05-22T12:30:25;96925.53;;;18.73;74.43
56719;BME280;42597;40.636;0.278;2023-05-22T12:32:51;96929.09;;;19.08;68.90
56719;BME280;42597;40.636;0.278;2023-05-22T12:35:17;96931.59;;;18.92;71.64
56719;BME280;42597;40.636;0.278;2023-05-22T12:37:50;96929.97;;;18.98;71.61
56719;BME280;42597;40.636;0.278;2023-05-22T12:40:16;96924.53;;;19.32;66.08
56719;BME280;42597;40.636;0.278;2023-05-22T12:42:42;96916.41;;;19.21;69.52
56719;BME280;42597;40.636;0.278;2023-05-22T12:45:10;96913.56;;;18.98;70.44
56719;BME280;42597;40.636;0.278;2023-05-22T12:47:36;96922.81;;;19.11;69.38
56719;BME280;42597;40.636;0.278;2023-05-22T12:50:02;96910.38;;;19.03;70.10
56719;BME280;42597;40.636;0.278;2023-05-22T12:52:27;96917.19;;;18.84;71.67
56719;BME280;42597;40.636;0.278;2023-05-22T12:54:53;96917.56;;;18.90;71.19
56719;BME280;42597;40.636;0.278;2023-05-22T12:57:18;96914.47;;;18.81;70.83
56719;BME280;42597;40.636;0.278;2023-05-22T12:59:44;96913.16;;;18.96;70.29
56719;BME280;42597;40.636;0.278;2023-05-22T13:02:09;96912.59;;;19.15;70.60
56719;BME280;42597;40.636;0.278;2023-05-22T13:04:35;96916.88;;;19.16;70.22
56719;BME280;42597;40.636;0.278;2023-05-22T13:07:00;96904.56;;;19.32;68.17
56719;BME280;42597;40.636;0.278;2023-05-22T13:09:26;96901.63;;;19.15;69.92
56719;BME280;42597;40.636;0.278;2023-05-22T13:11:52;96904.66;;;19.24;69.53
56719;BME280;42597;40.636;0.278;2023-05-22T13:14:18;96896.84;;;19.23;68.20
56719;BME280;42597;40.636;0.278;2023-05-22T13:16:43;96901.09;;;19.28;67.33
56719;BME280;42597;40.636;0.278;2023-05-22T13:19:09;96902.38;;;19.19;67.09
56719;BME280;42597;40.636;0.278;2023-05-22T13:21:35;96898.44;;;19.20;67.33
56719;BME280;42597;40.636;0.278;2023-05-22T13:24:01;96899.00;;;19.05;68.12
56719;BME280;42597;40.636;0.278;2023-05-22T13:26:28;96916.88;;;19.16;67.63
56719;BME280;42597;40.636;0.278;2023-05-22T13:28:54;96905.53;;;19.18;66.85
56719;BME280;42597;40.636;0.278;2023-05-22T13:31:19;96908.94;;;19.26;67.41
56719;BME280;42597;40.636;0.278;2023-05-22T13:33:45;96910.88;;;19.29;67.36